createdAt,value
2022-11-10T00:03:13.414Z,4.53
2022-11-10T00:07:20.180Z,4.90
2022-11-10T00:11:06.390Z,3.70
2022-11-10T00:15:08.086Z,3.23
2022-11-10T00:18:51.288Z,4.27
2022-11-10T00:22:40.827Z,5.77
2022-11-10T00:26:23.656Z,4.40
2022-11-10T00:30:08.741Z,3.10
2022-11-10T00:33:51.411Z,3.47
2022-11-10T00:37:34.222Z,3.10
2022-11-10T00:41:19.379Z,2.40
2022-11-10T00:45:02.658Z,3.50
2022-11-10T00:48:47.183Z,3.00
2022-11-10T00:52:30.143Z,3.63
2022-11-10T00:56:14.040Z,3.07
2022-11-10T00:59:57.043Z,2.20
2022-11-10T01:03:40.290Z,2.40
2022-11-10T01:07:48.578Z,3.03
2022-11-10T01:11:31.864Z,1.63
2022-11-10T01:15:14.536Z,2.13
2022-11-10T01:18:58.660Z,1.80
2022-11-10T01:22:58.145Z,1.67
2022-11-10T01:26:40.781Z,1.43
2022-11-10T01:30:23.441Z,2.03
2022-11-10T01:34:06.380Z,1.93
2022-11-10T01:38:08.311Z,1.30
2022-11-10T01:41:51.082Z,2.20
2022-11-10T01:45:49.012Z,0.80
2022-11-10T01:49:33.698Z,0.80
2022-11-10T01:53:22.852Z,0.90
2022-11-10T01:57:08.260Z,2.33
2022-11-10T02:00:51.005Z,1.10
2022-11-10T02:04:34.295Z,0.93
2022-11-10T02:08:23.200Z,2.73
2022-11-10T02:12:06.894Z,0.80
2022-11-10T02:15:49.594Z,0.83
2022-11-10T02:19:41.116Z,3.23
2022-11-10T02:23:49.912Z,1.10
2022-11-10T02:27:32.788Z,2.30
2022-11-10T02:31:15.958Z,0.70
2022-11-10T02:34:58.799Z,0.70
2022-11-10T02:38:52.509Z,0.87
2022-11-10T02:42:35.243Z,0.50
2022-11-10T02:46:17.892Z,1.20
2022-11-10T02:50:00.557Z,0.67
2022-11-10T02:53:53.362Z,0.70
2022-11-10T02:57:36.038Z,1.73
2022-11-10T03:01:18.744Z,1.27
2022-11-10T03:05:01.563Z,1.43
2022-11-10T03:08:44.315Z,2.10
2022-11-10T03:12:28.485Z,3.63
2022-11-10T03:16:11.114Z,1.83
2022-11-10T03:19:53.795Z,2.27
2022-11-10T03:23:39.609Z,1.40
2022-11-10T03:27:22.413Z,3.87
2022-11-10T03:31:06.908Z,4.20
2022-11-10T03:34:49.562Z,2.60
2022-11-10T03:38:32.293Z,2.57
2022-11-10T03:42:14.970Z,3.57
2022-11-10T03:45:57.622Z,4.90
2022-11-10T03:49:41.651Z,3.83
2022-11-10T03:53:24.593Z,4.07
2022-11-10T03:57:07.481Z,2.70
2022-11-10T04:00:50.160Z,3.07
2022-11-10T04:04:50.207Z,4.77
2022-11-10T04:08:51.998Z,2.90
2022-11-10T04:12:52.409Z,3.17
2022-11-10T04:16:35.165Z,3.13
2022-11-10T04:20:18.030Z,4.60
2022-11-10T04:24:02.006Z,2.43
2022-11-10T04:27:47.598Z,2.83
2022-11-10T04:31:31.622Z,2.93
2022-11-10T04:35:14.255Z,2.87
2022-11-10T04:38:57.224Z,3.53
2022-11-10T04:42:42.026Z,3.53
2022-11-10T04:46:26.578Z,6.40
2022-11-10T04:50:09.916Z,2.63
2022-11-10T04:53:52.744Z,3.90
2022-11-10T04:57:35.507Z,2.07
2022-11-10T05:01:21.421Z,3.50
2022-11-10T05:05:04.170Z,3.80
2022-11-10T05:08:47.375Z,2.73
2022-11-10T05:12:30.075Z,3.43
2022-11-10T05:16:13.181Z,3.77
2022-11-10T05:19:57.199Z,3.40
2022-11-10T05:23:40.255Z,3.00
2022-11-10T05:27:23.210Z,4.10
2022-11-10T05:31:06.188Z,3.53
2022-11-10T05:34:48.892Z,2.60
2022-11-10T05:38:32.980Z,3.17
2022-11-10T05:42:15.667Z,4.20
2022-11-10T05:45:58.516Z,3.20
2022-11-10T05:49:41.202Z,3.10
2022-11-10T05:53:24.212Z,4.73
2022-11-10T05:57:08.513Z,5.87
2022-11-10T06:00:51.195Z,3.57
2022-11-10T06:04:33.825Z,5.33
2022-11-10T06:08:17.759Z,5.03
2022-11-10T06:12:00.390Z,3.53
2022-11-10T06:15:50.055Z,5.67
2022-11-10T06:19:33.109Z,3.40
2022-11-10T06:23:16.209Z,4.97
2022-11-10T06:26:58.888Z,5.10
2022-11-10T06:30:41.583Z,5.80
2022-11-10T06:34:25.581Z,5.60
2022-11-10T06:38:10.946Z,6.30
2022-11-10T06:41:53.599Z,5.43
2022-11-10T06:45:36.279Z,4.93
2022-11-10T06:49:20.176Z,4.57
2022-11-10T06:53:04.485Z,3.47
2022-11-10T06:56:47.127Z,4.60
2022-11-10T07:00:30.525Z,5.07
2022-11-10T07:04:20.534Z,3.63
2022-11-10T07:08:06.063Z,4.70
2022-11-10T07:11:48.816Z,6.50
2022-11-10T07:15:34.684Z,52.27
2022-11-10T07:19:17.422Z,9.23
2022-11-10T07:23:01.124Z,5.27
2022-11-10T07:26:45.658Z,3.57
2022-11-10T07:30:29.130Z,4.27
2022-11-10T07:34:11.861Z,3.73
2022-11-10T07:37:54.615Z,5.30
2022-11-10T07:41:37.346Z,2.77
2022-11-10T07:45:22.939Z,3.27
2022-11-10T07:49:05.743Z,3.80
2022-11-10T07:52:48.744Z,6.03
2022-11-10T07:56:31.386Z,3.80
2022-11-10T08:00:15.580Z,4.70
2022-11-10T08:03:59.551Z,5.10
2022-11-10T08:07:42.318Z,3.93
2022-11-10T08:11:25.075Z,6.53
2022-11-10T08:15:08.484Z,3.70
2022-11-10T08:18:51.179Z,5.57
2022-11-10T08:22:35.355Z,6.67
2022-11-10T08:26:18.046Z,4.70
2022-11-10T08:30:00.707Z,5.23
2022-11-10T08:33:43.354Z,6.97
2022-11-10T08:37:27.808Z,3.40
2022-11-10T08:41:14.202Z,4.03
2022-11-10T08:44:56.831Z,5.40
2022-11-10T08:48:39.511Z,4.23
2022-11-10T08:52:22.177Z,4.43
2022-11-10T08:56:05.027Z,4.07
2022-11-10T08:59:49.049Z,5.00
2022-11-10T09:03:34.635Z,5.73
2022-11-10T09:07:17.321Z,6.40
2022-11-10T09:11:03.128Z,3.07
2022-11-10T09:14:45.853Z,2.50
2022-11-10T09:18:30.121Z,3.33
2022-11-10T09:22:12.891Z,8.17
2022-11-10T09:25:56.842Z,6.10
2022-11-10T09:29:39.534Z,4.00
2022-11-10T09:33:22.636Z,5.37
2022-11-10T09:37:06.835Z,5.70
2022-11-10T09:40:57.056Z,3.30
2022-11-10T09:44:42.951Z,6.97
2022-11-10T09:48:28.692Z,6.37
2022-11-10T09:52:13.819Z,6.67
2022-11-10T09:55:59.757Z,4.87
2022-11-10T09:59:44.068Z,4.57
2022-11-10T10:03:31.531Z,6.30
2022-11-10T10:07:17.953Z,5.40
2022-11-10T10:11:08.322Z,3.97
2022-11-10T10:15:11.808Z,4.17
2022-11-10T10:19:00.410Z,5.70
2022-11-10T10:22:54.822Z,4.13
2022-11-10T10:26:41.084Z,8.57
2022-11-10T10:30:24.007Z,3.77
2022-11-10T10:34:12.652Z,4.57
2022-11-10T10:37:58.489Z,5.67
2022-11-10T10:41:43.392Z,7.83
2022-11-10T10:45:29.024Z,7.73
2022-11-10T10:49:33.734Z,5.27
2022-11-10T10:53:19.208Z,4.57
2022-11-10T10:57:05.613Z,3.43
2022-11-10T11:00:49.790Z,7.10
2022-11-10T11:04:35.391Z,6.53
2022-11-10T11:08:20.013Z,4.07
2022-11-10T11:12:06.035Z,3.50
2022-11-10T11:15:58.177Z,5.93
2022-11-10T11:19:41.330Z,2.17
2022-11-10T11:23:37.325Z,2.80
2022-11-10T11:27:24.912Z,5.93
2022-11-10T11:31:11.667Z,5.77
2022-11-10T11:35:01.612Z,4.37
2022-11-10T11:38:54.076Z,3.03
2022-11-10T11:42:48.074Z,3.00
2022-11-10T11:46:37.599Z,5.53
2022-11-10T11:50:28.781Z,3.23
2022-11-10T11:54:28.123Z,8.17
2022-11-10T11:58:26.409Z,4.70
2022-11-10T12:02:47.560Z,3.57
2022-11-10T12:06:42.066Z,3.77
2022-11-10T12:10:39.239Z,3.53
2022-11-10T12:14:30.101Z,3.63
2022-11-10T12:18:22.611Z,1.97
2022-11-10T12:22:11.419Z,2.27
2022-11-10T12:26:02.739Z,1.77
2022-11-10T12:29:48.993Z,4.50
2022-11-10T12:33:36.623Z,4.37
2022-11-10T12:37:27.685Z,3.40
2022-11-10T12:41:13.734Z,2.03
2022-11-10T12:45:01.700Z,5.10
2022-11-10T12:48:51.614Z,3.43
2022-11-10T12:52:38.444Z,2.37
2022-11-10T12:56:26.607Z,4.17
2022-11-10T13:00:28.113Z,2.70
2022-11-10T13:04:14.974Z,2.20
2022-11-10T13:08:13.880Z,4.33
2022-11-10T13:12:16.629Z,5.37
2022-11-10T13:15:59.735Z,6.20
2022-11-10T13:19:52.900Z,2.83
2022-11-10T13:24:19.214Z,2.73
2022-11-10T13:28:03.366Z,4.33
2022-11-10T13:31:56.679Z,3.80
2022-11-10T13:35:55.166Z,2.87
2022-11-10T13:39:38.449Z,4.40
2022-11-10T13:43:26.507Z,1.87
2022-11-10T13:47:45.893Z,12.97
2022-11-10T13:51:40.421Z,2.20
2022-11-10T13:55:35.873Z,2.23
2022-11-10T13:59:22.527Z,2.73
2022-11-10T14:03:06.538Z,2.53
2022-11-10T14:06:50.668Z,1.63
2022-11-10T14:10:40.863Z,2.00
2022-11-10T14:14:28.570Z,4.20
2022-11-10T14:18:19.283Z,3.90
2022-11-10T14:22:04.657Z,3.60
2022-11-10T14:25:48.011Z,3.47
2022-11-10T14:29:34.528Z,2.17
2022-11-10T14:33:17.254Z,5.03
2022-11-10T14:37:02.710Z,3.70
2022-11-10T14:40:45.427Z,1.40
2022-11-10T14:44:29.623Z,4.60
2022-11-10T14:48:19.226Z,4.43
2022-11-10T14:52:02.119Z,2.80
2022-11-10T14:55:46.310Z,2.00
2022-11-10T14:59:31.734Z,2.53
2022-11-10T15:03:20.044Z,2.40
2022-11-10T15:07:02.922Z,2.47
2022-11-10T15:10:47.622Z,4.47
2022-11-10T15:14:33.010Z,3.03
2022-11-10T15:18:29.160Z,4.07
2022-11-10T15:22:17.983Z,4.37
2022-11-10T15:26:00.656Z,2.23
2022-11-10T15:29:43.345Z,4.53
2022-11-10T15:33:29.191Z,5.37
2022-11-10T15:37:30.757Z,6.83
2022-11-10T15:41:16.291Z,4.47
2022-11-10T15:44:59.437Z,3.80
2022-11-10T15:48:44.844Z,3.60
2022-11-10T15:52:27.554Z,4.93
2022-11-10T15:56:14.370Z,7.60
2022-11-10T15:59:57.016Z,4.00
2022-11-10T16:03:44.493Z,5.07
2022-11-10T16:07:27.293Z,5.30
2022-11-10T16:11:15.442Z,8.37
2022-11-10T16:14:58.265Z,8.37
2022-11-10T16:18:44.081Z,7.33
2022-11-10T16:22:26.830Z,8.87
2022-11-10T16:26:11.777Z,7.80
2022-11-10T16:29:54.902Z,6.60
2022-11-10T16:33:37.568Z,8.67
2022-11-10T16:37:21.807Z,8.87
2022-11-10T16:41:05.263Z,9.87
2022-11-10T16:44:48.016Z,7.37
2022-11-10T16:48:32.831Z,16.67
2022-11-10T16:52:16.665Z,20.63
2022-11-10T16:56:00.806Z,9.87
2022-11-10T16:59:45.569Z,9.80
2022-11-10T17:03:31.924Z,5.07
2022-11-10T17:07:15.534Z,7.60
2022-11-10T17:10:58.411Z,8.73
2022-11-10T17:14:42.526Z,4.97
2022-11-10T17:18:25.726Z,7.57
2022-11-10T17:22:10.822Z,6.33
2022-11-10T17:25:54.548Z,11.50
2022-11-10T17:29:37.243Z,8.20
2022-11-10T17:33:21.616Z,8.63
2022-11-10T17:37:04.891Z,6.90
2022-11-10T17:40:48.306Z,8.10
2022-11-10T17:44:31.425Z,7.37
2022-11-10T17:48:14.118Z,8.93
2022-11-10T17:51:58.248Z,8.17
2022-11-10T17:55:41.010Z,7.40
2022-11-10T17:59:23.779Z,11.43
2022-11-10T18:03:08.592Z,11.07
2022-11-10T18:06:51.336Z,11.17
2022-11-10T18:10:35.370Z,16.93
2022-11-10T18:14:18.036Z,17.57
2022-11-10T18:18:01.269Z,15.00
2022-11-10T18:21:44.098Z,18.63
2022-11-10T18:25:26.815Z,19.50
2022-11-10T18:29:11.055Z,26.13
2022-11-10T18:32:53.728Z,20.03
2022-11-10T18:36:36.366Z,21.27
2022-11-10T18:40:19.082Z,15.70
2022-11-10T18:44:01.798Z,18.83
2022-11-10T18:47:45.845Z,18.13
2022-11-10T18:51:28.587Z,21.63
2022-11-10T18:55:11.640Z,20.67
2022-11-10T18:58:56.972Z,22.03
2022-11-10T19:02:39.908Z,18.40
2022-11-10T19:06:24.447Z,20.07
2022-11-10T19:10:09.016Z,16.83
2022-11-10T19:13:54.740Z,16.40
2022-11-10T19:17:39.195Z,15.33
2022-11-10T19:21:27.014Z,13.97
2022-11-10T19:25:09.958Z,16.10
2022-11-10T19:28:56.430Z,15.73
2022-11-10T19:32:39.803Z,18.87
2022-11-10T19:36:26.733Z,20.27
2022-11-10T19:40:10.716Z,21.77
2022-11-10T19:43:56.713Z,23.53
2022-11-10T19:47:39.354Z,24.53
2022-11-10T19:51:23.183Z,25.30
2022-11-10T19:55:07.862Z,26.53
2022-11-10T19:58:58.743Z,26.63
2022-11-10T20:02:45.403Z,20.37
2022-11-10T20:06:28.984Z,25.27
2022-11-10T20:10:13.262Z,25.53
2022-11-10T20:14:16.774Z,20.30
2022-11-10T20:17:59.411Z,21.30
2022-11-10T20:21:42.339Z,26.87
2022-11-10T20:25:26.371Z,22.60
2022-11-10T20:29:21.226Z,20.70
2022-11-10T20:33:05.797Z,17.87
2022-11-10T20:36:48.611Z,18.23
2022-11-10T20:40:48.383Z,14.30
2022-11-10T20:44:31.065Z,13.30
2022-11-10T20:48:13.909Z,15.10
2022-11-10T20:51:59.672Z,14.30
2022-11-10T20:55:53.451Z,14.53
2022-11-10T20:59:36.688Z,16.77
2022-11-10T21:03:19.507Z,15.57
2022-11-10T21:07:02.280Z,13.37
2022-11-10T21:10:52.748Z,38.23
2022-11-10T21:14:45.275Z,17.03
2022-11-10T21:18:29.771Z,20.03
2022-11-10T21:22:12.483Z,18.13
2022-11-10T21:25:57.737Z,16.50
2022-11-10T21:30:05.523Z,22.10
2022-11-10T21:33:50.509Z,18.50
2022-11-10T21:37:34.606Z,22.60
2022-11-10T21:41:19.062Z,23.77
2022-11-10T21:45:01.762Z,29.73
2022-11-10T21:48:44.571Z,22.07
2022-11-10T21:52:27.252Z,21.37
2022-11-10T21:56:11.417Z,19.53
2022-11-10T22:00:06.378Z,16.93
2022-11-10T22:03:49.683Z,21.30
2022-11-10T22:07:32.314Z,13.60
2022-11-10T22:11:33.697Z,14.20
2022-11-10T22:15:35.204Z,18.77
2022-11-10T22:19:18.314Z,15.87
2022-11-10T22:23:01.075Z,13.63
2022-11-10T22:26:43.715Z,13.90
2022-11-10T22:30:28.325Z,14.07
2022-11-10T22:34:11.897Z,14.07
2022-11-10T22:37:57.350Z,16.30
2022-11-10T22:42:02.954Z,14.93
2022-11-10T22:45:47.186Z,12.57
2022-11-10T22:49:29.829Z,14.17
2022-11-10T22:53:15.426Z,18.30
2022-11-10T22:56:58.097Z,9.07
2022-11-10T23:00:41.401Z,10.00
2022-11-10T23:04:25.408Z,8.33
2022-11-10T23:08:08.155Z,9.50
2022-11-10T23:11:50.790Z,10.20
2022-11-10T23:15:40.378Z,10.93
2022-11-10T23:19:22.999Z,8.17
2022-11-10T23:23:07.008Z,7.30
2022-11-10T23:26:49.721Z,8.10
2022-11-10T23:30:51.961Z,7.90
2022-11-10T23:34:34.633Z,9.53
2022-11-10T23:38:18.924Z,8.60
2022-11-10T23:42:01.599Z,7.10
2022-11-10T23:46:07.684Z,8.73
2022-11-10T23:49:50.568Z,10.47
2022-11-10T23:53:34.597Z,6.73
2022-11-10T23:57:17.211Z,8.10
